Terminal Aerodrome Forecast
Issued by NWS Mt. Holly, NJ

Home | Current Version | Previous Version | Text Only | Print | Product List | Glossary On
Versions: 1 2 3 4 5 6 7 8 9 10 11 12 13 14 15 16 17 18 19 20
000
FTAK31 PANC 280859 AAA
TAFABE
TAF AMD
PABE 280859Z 2809/2906 25008KT P6SM -RA SCT004 BKN011
      TEMPO 2809/2812 5SM -RA BR BKN004
     FM281200 15008KT P6SM BKN050 OVC080
     FM281500 13008KT P6SM -RA BKN035 OVC050
     FM290000 17010KT P6SM -SHRA BKN050 OVC070=

USA.gov is the U.S. government's official web portal to all federal, state and local government web resources and services.